Time;durP1;ratioP1;P1;durP2;ratioP2;P2;SDS_P1;SDS_P2;PMS_P1;PMS_P2;Temp;Humidity;BMP_temperature;BMP_pressure;BME280_temperature;BME280_humidity;BME280_pressure;Samples;Min_cycle;Max_cycle;Signal;HPM_P1;HPM_P2
2022/11/15 00:01:28;;;;;;;11.90;5.80;;;;;;;4.01;69.17;100277.71;24690;1324;3052121;-68
2022/11/15 00:04:16;;;;;;;14.20;5.60;;;;;;;4.03;69.09;100273.67;24714;1322;3052259;-69
2022/11/15 00:07:04;;;;;;;13.20;6.70;;;;;;;4.03;69.09;100276.47;24668;1328;3049579;-69
2022/11/15 00:09:52;;;;;;;15.20;7.00;;;;;;;4.00;69.00;100274.63;24618;1326;3069442;-68
2022/11/15 00:12:41;;;;;;;13.60;6.30;;;;;;;3.98;69.10;100275.17;24603;1333;3050403;-69
2022/11/15 00:15:29;;;;;;;8.60;5.20;;;;;;;3.97;69.07;100278.49;24676;1328;3057547;-70
2022/11/15 00:18:19;;;;;;;15.00;6.60;;;;;;;3.92;69.39;100275.83;24640;1324;3052096;-71
2022/11/15 00:21:11;;;;;;;13.30;5.90;;;;;;;3.93;69.40;100274.93;24637;1328;3054416;-70
2022/11/15 00:23:58;;;;;;;9.40;5.30;;;;;;;3.95;69.16;100272.30;24654;1327;3051852;-70
2022/11/15 00:26:46;;;;;;;10.20;5.50;;;;;;;3.97;69.15;100270.52;24676;1328;3053014;-71
2022/11/15 00:29:33;;;;;;;16.40;5.70;;;;;;;3.98;69.09;100270.15;24616;1335;3049152;-70
2022/11/15 00:32:21;;;;;;;12.30;6.00;;;;;;;3.99;68.84;100270.83;24597;1320;3071347;-70
2022/11/15 00:35:09;;;;;;;15.80;6.50;;;;;;;4.00;68.84;100270.12;24616;1327;3051702;-70
2022/11/15 00:37:57;;;;;;;10.40;5.40;;;;;;;3.99;68.94;100275.15;24641;1327;3057476;-70
2022/11/15 00:40:44;;;;;;;9.50;5.20;;;;;;;3.96;68.82;100278.34;24718;1320;3052470;-71
2022/11/15 00:43:32;;;;;;;11.80;6.20;;;;;;;3.89;69.21;100277.44;24640;1327;3054088;-70
2022/11/15 00:46:20;;;;;;;13.40;7.60;;;;;;;3.83;69.35;100276.17;24655;1327;3052409;-70
2022/11/15 00:49:09;;;;;;;16.80;7.50;;;;;;;3.74;69.99;100271.49;24596;1328;3052397;-66
2022/11/15 00:51:57;;;;;;;16.10;7.70;;;;;;;3.69;70.34;100269.86;24613;1323;3049786;-69
2022/11/15 00:54:45;;;;;;;14.90;7.50;;;;;;;3.62;70.68;100269.47;24609;1327;3069143;-72
2022/11/15 00:57:33;;;;;;;18.00;8.40;;;;;;;3.58;71.36;100263.33;24607;1328;3050010;-71
2022/11/15 01:00:21;;;;;;;14.80;7.60;;;;;;;3.60;71.15;100266.58;24623;1327;3057371;-71
2022/11/15 01:03:09;;;;;;;17.20;7.60;;;;;;;3.63;71.09;100263.23;24650;1320;3051223;-70
2022/11/15 01:05:59;;;;;;;17.60;8.60;;;;;;;3.65;71.10;100262.65;24634;1327;3053445;-69
2022/11/15 01:08:47;;;;;;;14.30;8.10;;;;;;;3.65;70.98;100263.89;24623;1327;3051999;-74
2022/11/15 01:11:34;;;;;;;16.50;8.30;;;;;;;3.62;71.09;100257.70;24666;1328;3053502;-71
2022/11/15 01:14:22;;;;;;;16.90;8.70;;;;;;;3.59;71.18;100258.27;24676;1321;3049221;-69
2022/11/15 01:17:13;;;;;;;15.80;8.00;;;;;;;3.59;71.14;100257.39;24654;1327;3068102;-69
2022/11/15 01:20:04;;;;;;;21.10;8.80;;;;;;;3.53;71.15;100254.58;24626;1328;3049616;-68
2022/11/15 01:22:53;;;;;;;17.70;8.70;;;;;;;3.53;71.12;100248.86;24582;1328;3056567;-67
2022/11/15 01:25:41;;;;;;;18.80;8.80;;;;;;;3.51;71.44;100244.55;24628;1327;3051776;-69
2022/11/15 01:28:31;;;;;;;22.10;8.30;;;;;;;3.50;71.39;100248.05;24689;1319;3054254;-71
2022/11/15 01:31:20;;;;;;;16.60;8.40;;;;;;;3.50;71.40;100248.23;24627;1328;3052690;-69
2022/11/15 01:34:07;;;;;;;14.50;8.30;;;;;;;3.51;71.32;100250.09;24665;1328;3054949;-67
2022/11/15 01:36:56;;;;;;;16.70;8.50;;;;;;;3.53;71.28;100248.85;24663;1328;3048759;-69
2022/11/15 01:39:44;;;;;;;18.00;7.50;;;;;;;3.52;71.25;100243.68;24614;1321;3069084;-70
2022/11/15 01:42:32;;;;;;;13.80;7.00;;;;;;;3.50;71.16;100243.20;24659;1328;3050374;-69
2022/11/15 01:45:20;;;;;;;13.90;8.10;;;;;;;3.50;71.04;100250.13;24639;1327;3057381;-67
2022/11/15 01:48:08;;;;;;;15.60;7.80;;;;;;;3.46;71.20;100248.83;24646;1331;3051724;-69
2022/11/15 01:50:57;;;;;;;14.10;8.00;;;;;;;3.44;71.37;100256.65;24634;1321;3052075;-68
2022/11/15 01:53:43;;;;;;;15.70;7.50;;;;;;;3.40;71.34;100258.11;24285;1328;3051501;-70
2022/11/15 01:56:36;;;;;;;18.50;8.20;;;;;;;3.36;71.43;100261.30;24689;1328;3052697;-68
2022/11/15 01:59:24;;;;;;;13.50;8.10;;;;;;;3.31;71.75;100263.13;24683;1321;3053311;-68
2022/11/15 02:02:13;;;;;;;15.70;7.80;;;;;;;3.32;71.90;100264.66;24642;1327;3052150;-69
2022/11/15 02:05:01;;;;;;;13.10;8.30;;;;;;;3.30;71.88;100270.41;24622;1337;3052678;-67
2022/11/15 02:07:50;;;;;;;19.30;9.30;;;;;;;3.23;72.22;100273.84;24647;1336;3050544;-69
2022/11/15 02:10:39;;;;;;;16.40;8.60;;;;;;;3.18;72.23;100275.83;24649;1327;3069294;-68
2022/11/15 02:13:27;;;;;;;16.70;9.10;;;;;;;3.16;72.75;100273.77;24675;1327;3051142;-66
2022/11/15 02:16:25;;;;;;;18.20;8.40;;;;;;;3.16;72.81;100276.36;24624;1328;3058384;-68
2022/11/15 02:19:24;;;;;;;17.00;9.00;;;;;;;3.18;72.95;100277.38;24667;1328;3051838;-67
2022/11/15 02:22:46;;;;;;;12.30;7.10;;;;;;;3.25;72.70;100273.61;24704;1329;3054509;-67
2022/11/15 02:26:11;;;;;;;10.30;4.80;;;;;;;4.31;70.61;100274.30;24680;1325;3052704;-68
2022/11/15 02:29:08;;;;;;;10.30;5.60;;;;;;;4.83;68.36;100265.30;24564;1337;3052652;-67
2022/11/15 02:32:09;;;;;;;14.50;6.40;;;;;;;4.72;67.83;100264.69;24633;1327;3048593;-68
2022/11/15 02:35:15;;;;;;;14.10;6.00;;;;;;;4.52;68.45;100263.95;24646;1334;3067921;-69
2022/11/15 02:38:19;;;;;;;13.80;7.10;;;;;;;4.29;68.50;100267.43;24608;1321;3051248;-67
2022/11/15 02:41:10;;;;;;;12.60;6.40;;;;;;;4.09;68.80;100264.02;24629;1321;3057487;-69
2022/11/15 02:44:04;;;;;;;16.20;7.40;;;;;;;3.92;68.86;100263.16;24658;1337;3051154;-70
2022/11/15 02:47:13;;;;;;;18.10;8.90;;;;;;;3.77;69.08;100263.98;24652;1328;3053692;-70
2022/11/15 02:50:05;;;;;;;15.30;7.40;;;;;;;3.48;69.59;100265.05;24566;1321;3051345;-68
2022/11/15 02:52:53;;;;;;;17.00;7.90;;;;;;;3.35;70.33;100263.05;24602;1334;3053106;-65
2022/11/15 02:55:44;;;;;;;15.60;8.50;;;;;;;3.33;70.65;100253.56;24647;1320;3049812;-67
2022/11/15 02:59:20;;;;;;;13.10;6.80;;;;;;;3.28;70.49;100247.42;24654;1321;3069985;-69
2022/11/15 03:02:28;;;;;;;13.20;6.80;;;;;;;3.12;71.14;100251.67;24514;1326;3051259;-67
2022/11/15 03:05:22;;;;;;;13.40;7.10;;;;;;;2.92;72.19;100256.52;24599;1334;3057303;-68
2022/11/15 03:08:29;;;;;;;13.60;6.40;;;;;;;2.91;72.79;100259.83;24616;1321;3052662;-65
2022/11/15 03:11:19;;;;;;;18.10;7.70;;;;;;;2.88;72.75;100260.21;24624;1328;3052892;-65
2022/11/15 03:14:22;;;;;;;13.70;7.50;;;;;;;2.79;73.30;100259.67;24601;1328;3051663;-68
2022/11/15 03:17:23;;;;;;;17.30;8.00;;;;;;;2.65;74.22;100266.28;24742;1318;3053125;-66
2022/11/15 03:20:12;;;;;;;18.10;8.90;;;;;;;2.59;75.13;100268.46;24656;1340;3049301;-68
2022/11/15 03:23:08;;;;;;;16.00;8.10;;;;;;;2.56;75.19;100266.43;24570;1330;3068122;-67
2022/11/15 03:25:55;;;;;;;18.30;8.90;;;;;;;2.50;75.37;100264.95;24596;1328;3050923;-65
2022/11/15 03:28:52;;;;;;;17.20;8.30;;;;;;;2.40;75.77;100265.27;24618;1327;3057127;-69
2022/11/15 03:31:47;;;;;;;22.20;9.10;;;;;;;2.31;75.93;100268.00;24646;1326;3051895;-67
2022/11/15 03:34:39;;;;;;;16.50;8.20;;;;;;;2.25;76.23;100266.85;24604;1327;3054427;-67
2022/11/15 03:37:44;;;;;;;12.50;6.60;;;;;;;2.29;76.29;100267.33;24643;1327;3050276;-65
2022/11/15 03:40:58;;;;;;;8.50;4.10;;;;;;;3.19;74.03;100268.35;24650;1327;3052965;-69
2022/11/15 03:44:25;;;;;;;14.80;6.50;;;;;;;3.73;71.89;100261.46;24654;1328;3049149;-66
2022/11/15 03:47:20;;;;;;;16.60;6.70;;;;;;;3.57;71.84;100261.61;24639;1331;3070389;-67
2022/11/15 03:50:12;;;;;;;17.60;6.70;;;;;;;3.39;72.30;100262.98;24675;1327;3050013;-68
2022/11/15 03:53:00;;;;;;;18.40;8.00;;;;;;;3.18;72.48;100258.50;24671;1325;3057899;-70
2022/11/15 03:55:48;;;;;;;18.20;8.60;;;;;;;2.92;72.74;100263.11;24676;1326;3052064;-67
2022/11/15 03:58:37;;;;;;;17.80;9.50;;;;;;;2.73;73.40;100261.85;24612;1334;3054644;-67
2022/11/15 04:01:25;;;;;;;19.10;8.90;;;;;;;2.61;73.69;100264.45;24615;1331;3052857;-65
2022/11/15 04:04:12;;;;;;;17.00;10.00;;;;;;;2.44;73.57;100269.71;24628;1321;3052301;-67
2022/11/15 04:07:00;;;;;;;19.50;10.50;;;;;;;2.29;73.57;100264.05;24689;1321;3048334;-66
2022/11/15 04:10:01;;;;;;;19.70;10.50;;;;;;;2.18;73.69;100265.58;24635;1319;3069400;-66
2022/11/15 04:12:50;;;;;;;19.10;10.50;;;;;;;2.08;74.22;100263.98;24646;1328;3050734;-68
2022/11/15 04:15:39;;;;;;;17.70;11.00;;;;;;;2.08;74.05;100261.39;24651;1325;3057304;-69
2022/11/15 04:18:27;;;;;;;16.50;9.60;;;;;;;2.08;73.89;100264.14;24656;1316;3050678;-66
2022/11/15 04:24:22;;;;;;;15.90;8.80;;;;;;;1.96;73.81;100256.18;24664;1331;3052329;-69
2022/11/15 04:27:12;;;;;;;17.20;7.80;;;;;;;1.91;73.30;100246.73;24649;1327;3053627;-69
2022/11/15 04:30:00;;;;;;;10.10;5.60;;;;;;;1.89;72.49;100246.08;24665;1328;3048618;-70
2022/11/15 04:32:48;;;;;;;9.30;4.80;;;;;;;1.85;72.38;100243.02;24688;1324;3068875;-69
2022/11/15 04:35:35;;;;;;;10.00;4.70;;;;;;;1.78;72.02;100243.11;24650;1324;3049773;-66
2022/11/15 04:38:23;;;;;;;9.80;4.50;;;;;;;1.82;71.80;100239.23;24628;1332;3056846;-64
2022/11/15 04:41:11;;;;;;;8.50;4.50;;;;;;;1.79;71.59;100239.45;24639;1329;3052066;-66
2022/11/15 04:43:59;;;;;;;8.10;4.10;;;;;;;1.74;71.36;100238.15;24657;1331;3052301;-70
2022/11/15 04:46:46;;;;;;;11.40;4.60;;;;;;;1.69;71.17;100234.05;24669;1332;3051114;-67
2022/11/15 04:49:34;;;;;;;9.90;4.70;;;;;;;1.51;71.12;100233.40;24649;1327;3052987;-71
2022/11/15 04:52:21;;;;;;;16.40;5.30;;;;;;;1.55;71.41;100234.39;24658;1325;3049502;-70
2022/11/15 04:55:10;;;;;;;7.80;4.40;;;;;;;1.52;71.61;100239.59;24637;1321;3068926;-71
2022/11/15 04:58:01;;;;;;;14.20;4.90;;;;;;;1.48;71.86;100243.61;24679;1318;3051543;-68
2022/11/15 05:00:49;;;;;;;8.50;4.50;;;;;;;1.42;71.88;100239.88;24625;1329;3058710;-71
2022/11/15 05:06:46;;;;;;;8.00;4.20;;;;;;;1.60;71.67;100242.62;24678;1328;3054920;-68
2022/11/15 05:09:34;;;;;;;7.60;4.00;;;;;;;1.64;71.06;100243.27;24644;1328;3051427;-67
2022/11/15 05:12:22;;;;;;;12.80;4.10;;;;;;;1.59;71.10;100242.28;24657;1318;3051825;-68
2022/11/15 05:15:10;;;;;;;8.30;4.80;;;;;;;1.59;71.13;100240.56;24642;1316;3049446;-68
2022/11/15 05:17:59;;;;;;;8.50;4.30;;;;;;;1.56;71.41;100246.29;24667;1328;3068825;-69
2022/11/15 05:20:48;;;;;;;8.70;4.70;;;;;;;1.57;70.93;100247.83;24650;1328;3050933;-68
2022/11/15 05:23:36;;;;;;;8.50;3.70;;;;;;;1.61;70.88;100248.31;24667;1329;3056749;-70
2022/11/15 05:26:24;;;;;;;10.40;4.60;;;;;;;1.62;70.49;100254.52;24654;1333;3052114;-69
2022/11/15 05:29:11;;;;;;;8.50;4.40;;;;;;;1.63;70.55;100251.56;24659;1328;3054306;-71
2022/11/15 05:31:59;;;;;;;8.20;4.70;;;;;;;1.66;70.57;100251.88;24622;1318;3052910;-71
2022/11/15 05:34:47;;;;;;;8.60;4.00;;;;;;;1.67;70.41;100253.06;24645;1330;3053291;-73
2022/11/15 05:37:35;;;;;;;13.50;4.80;;;;;;;1.71;70.43;100253.55;24611;1318;3048417;-75
2022/11/15 05:40:23;;;;;;;10.70;4.80;;;;;;;1.78;70.62;100259.87;24660;1323;3069855;-66
2022/11/15 05:43:12;;;;;;;10.30;4.90;;;;;;;1.79;70.28;100260.00;24657;1328;3050662;-69
2022/11/15 05:45:59;;;;;;;9.30;4.30;;;;;;;1.81;70.22;100252.21;24637;1333;3056190;-69
2022/11/15 05:48:48;;;;;;;9.80;5.10;;;;;;;1.93;69.92;100257.42;24651;1332;3052969;-69
2022/11/15 05:51:36;;;;;;;10.30;4.80;;;;;;;1.92;69.62;100266.95;24672;1333;3053016;-67
2022/11/15 05:54:24;;;;;;;10.50;4.20;;;;;;;1.89;69.53;100263.52;24686;1327;3052476;-71
2022/11/15 05:57:12;;;;;;;10.30;4.90;;;;;;;1.89;69.82;100255.06;24686;1334;3052255;-67
2022/11/15 05:59:59;;;;;;;9.80;4.90;;;;;;;1.94;70.10;100256.55;24623;1320;3049259;-70
2022/11/15 06:02:47;;;;;;;11.30;4.30;;;;;;;2.01;70.08;100257.16;24591;1331;3070364;-68
2022/11/15 06:05:36;;;;;;;9.30;4.80;;;;;;;2.13;69.92;100254.23;24671;1337;3051275;-68
2022/11/15 06:08:24;;;;;;;11.30;5.20;;;;;;;2.26;69.69;100260.98;24697;1317;3058132;-68
2022/11/15 06:11:11;;;;;;;9.30;5.00;;;;;;;2.31;69.55;100261.08;24675;1333;3051937;-67
2022/11/15 06:14:00;;;;;;;9.50;5.10;;;;;;;2.36;69.36;100259.63;24660;1320;3053995;-69
2022/11/15 06:16:50;;;;;;;9.10;4.80;;;;;;;2.44;69.62;100257.27;24641;1328;3052403;-67
2022/11/15 06:19:39;;;;;;;12.10;5.40;;;;;;;2.53;69.41;100258.52;24593;1328;3053875;-70
2022/11/15 06:22:31;;;;;;;12.00;5.70;;;;;;;2.65;69.13;100258.16;24617;1324;3050161;-68
2022/11/15 06:25:18;;;;;;;13.70;5.70;;;;;;;2.81;68.66;100261.36;24599;1330;3070621;-67
2022/11/15 06:28:06;;;;;;;13.80;5.20;;;;;;;2.87;68.78;100263.34;24677;1326;3049654;-68
2022/11/15 06:30:54;;;;;;;11.30;5.20;;;;;;;3.04;68.61;100259.96;24660;1327;3057003;-72
2022/11/15 06:33:42;;;;;;;9.60;4.70;;;;;;;3.14;68.14;100253.54;24711;1328;3052169;-67
2022/11/15 06:36:29;;;;;;;10.00;4.60;;;;;;;3.31;68.13;100249.44;24641;1324;3052745;-68
2022/11/15 06:39:17;;;;;;;12.80;5.90;;;;;;;3.41;67.91;100253.23;24657;1323;3053122;-69
2022/11/15 06:42:05;;;;;;;19.00;5.30;;;;;;;3.41;67.77;100254.79;24711;1328;3052897;-68
2022/11/15 06:44:54;;;;;;;12.30;5.60;;;;;;;3.62;67.13;100262.38;24697;1318;3051488;-68
2022/11/15 06:47:46;;;;;;;12.00;6.40;;;;;;;3.67;66.90;100260.04;24652;1326;3068336;-71
2022/11/15 06:50:34;;;;;;;14.00;6.30;;;;;;;3.71;66.57;100256.15;24663;1326;3050410;-68
2022/11/15 06:53:23;;;;;;;12.90;6.50;;;;;;;3.65;67.19;100260.76;24656;1318;3057562;-70
2022/11/15 06:56:10;;;;;;;11.10;5.50;;;;;;;3.77;66.39;100263.83;24745;1328;3051660;-69
2022/11/15 06:58:58;;;;;;;9.80;5.90;;;;;;;3.78;66.37;100258.62;24685;1327;3054129;-72
2022/11/15 07:01:47;;;;;;;13.80;6.80;;;;;;;3.68;66.54;100250.48;24663;1321;3049831;-70
2022/11/15 07:04:36;;;;;;;13.00;6.00;;;;;;;3.67;66.48;100255.52;24692;1328;3053058;-67
2022/11/15 07:07:23;;;;;;;9.50;5.00;;;;;;;3.73;66.23;100252.98;24688;1333;3050412;-67
2022/11/15 07:10:11;;;;;;;12.80;5.70;;;;;;;3.87;65.63;100247.84;24666;1319;3070621;-66
2022/11/15 07:13:02;;;;;;;10.50;5.20;;;;;;;3.87;65.52;100237.63;24690;1325;3049242;-68
2022/11/15 07:15:51;;;;;;;9.70;5.20;;;;;;;3.82;65.74;100243.42;24636;1320;3057494;-65
2022/11/15 07:18:41;;;;;;;12.40;5.70;;;;;;;3.81;66.30;100239.30;24631;1327;3053459;-72
2022/11/15 07:21:29;;;;;;;10.70;6.00;;;;;;;3.83;65.89;100236.83;24653;1320;3053383;-64
2022/11/15 07:24:18;;;;;;;12.20;6.10;;;;;;;3.73;65.61;100240.32;24669;1327;3052694;-73
2022/11/15 07:27:06;;;;;;;12.60;6.70;;;;;;;3.79;65.20;100237.61;24697;1328;3053301;-72
2022/11/15 07:29:54;;;;;;;11.60;4.90;;;;;;;3.80;65.21;100234.13;24720;1325;3050464;-64
2022/11/15 07:32:42;;;;;;;11.80;6.00;;;;;;;3.92;64.58;100232.32;24680;1318;3068802;-65
2022/11/15 07:35:32;;;;;;;13.00;5.90;;;;;;;3.86;64.93;100228.10;24676;1332;3050673;-68
2022/11/15 07:38:20;;;;;;;11.00;6.00;;;;;;;3.82;64.78;100226.79;24713;1324;3058337;-67
2022/11/15 07:41:08;;;;;;;12.90;5.80;;;;;;;3.84;64.97;100220.34;24692;1320;3050432;-68
2022/11/15 07:43:57;;;;;;;15.00;7.40;;;;;;;3.80;65.31;100215.92;24684;1328;3053862;-66
2022/11/15 07:46:46;;;;;;;13.10;6.40;;;;;;;3.73;65.76;100207.57;24692;1328;3053188;-70
2022/11/15 07:49:36;;;;;;;10.70;5.90;;;;;;;4.06;65.08;100208.61;24630;1328;3052360;-66
2022/11/15 07:52:23;;;;;;;12.00;6.00;;;;;;;4.14;64.83;100199.59;24670;1338;3050810;-68
2022/11/15 07:55:12;;;;;;;13.80;6.40;;;;;;;4.27;63.99;100196.86;24687;1320;3068899;-69
2022/11/15 07:58:04;;;;;;;12.80;5.80;;;;;;;4.33;62.97;100195.33;24674;1325;3051704;-66
2022/11/15 08:00:51;;;;;;;11.00;4.90;;;;;;;4.47;62.48;100196.41;24678;1318;3056484;-70
2022/11/15 08:03:39;;;;;;;9.30;4.90;;;;;;;4.54;62.30;100193.98;24648;1318;3052386;-67
2022/11/15 08:06:27;;;;;;;8.90;4.20;;;;;;;4.55;61.27;100189.63;24683;1325;3054550;-63
2022/11/15 08:09:15;;;;;;;16.30;6.40;;;;;;;4.63;61.90;100185.45;24745;1327;3051513;-69
2022/11/15 08:12:03;;;;;;;13.20;6.30;;;;;;;4.49;62.04;100184.04;24628;1320;3052349;-67
2022/11/15 08:14:52;;;;;;;19.80;8.80;;;;;;;4.61;61.93;100186.36;24782;1328;3049641;-67
2022/11/15 08:17:40;;;;;;;23.40;9.30;;;;;;;4.60;62.00;100181.71;24702;1328;3071235;-64
2022/11/15 08:20:32;;;;;;;18.70;9.40;;;;;;;4.65;62.15;100185.05;24745;1335;3048496;-65
2022/11/15 08:23:20;;;;;;;16.30;7.90;;;;;;;4.78;62.10;100180.38;24696;1328;3056795;-64
2022/11/15 08:26:09;;;;;;;16.10;8.10;;;;;;;4.80;61.91;100179.11;24638;1328;3052739;-64
2022/11/15 08:28:56;;;;;;;21.00;9.00;;;;;;;4.61;62.59;100180.80;24658;1328;3053576;-69
2022/11/15 08:31:45;;;;;;;20.20;9.40;;;;;;;4.53;63.60;100177.00;24676;1327;3053052;-66
2022/11/15 08:34:32;;;;;;;15.10;7.80;;;;;;;4.63;63.59;100176.92;24569;1327;3051724;-61
2022/11/15 08:37:20;;;;;;;16.10;7.60;;;;;;;4.33;64.16;100180.60;24668;1321;3050810;-63
2022/11/15 08:40:09;;;;;;;15.90;7.50;;;;;;;4.44;63.99;100185.90;24556;1320;3069525;-64
2022/11/15 08:42:58;;;;;;;17.40;7.60;;;;;;;4.71;63.19;100187.67;24677;1328;3051459;-63
2022/11/15 08:45:47;;;;;;;16.80;7.40;;;;;;;4.89;61.84;100180.27;24661;1333;3056535;-69
2022/11/15 08:48:38;;;;;;;14.80;6.30;;;;;;;4.94;61.89;100174.42;24761;1326;3050872;-63
2022/11/15 08:51:26;;;;;;;15.80;6.10;;;;;;;5.23;60.97;100176.96;24674;1327;3052910;-63
2022/11/15 08:54:14;;;;;;;16.40;6.60;;;;;;;5.27;60.60;100176.84;24684;1321;3052673;-66
2022/11/15 08:57:04;;;;;;;17.70;7.20;;;;;;;5.46;60.69;100170.77;24628;1327;3052281;-66
2022/11/15 08:59:52;;;;;;;15.80;7.20;;;;;;;5.56;59.71;100159.16;24657;1327;3049459;-66
2022/11/15 09:02:40;;;;;;;12.40;5.90;;;;;;;5.75;58.77;100154.63;24741;1318;3069201;-68
2022/11/15 09:05:28;;;;;;;15.10;5.90;;;;;;;5.68;59.02;100146.48;24674;1326;3049610;-68
2022/11/15 09:08:16;;;;;;;14.10;6.40;;;;;;;5.78;58.96;100139.77;24685;1333;3057858;-63
2022/11/15 09:11:05;;;;;;;19.00;7.30;;;;;;;5.73;58.39;100138.36;24637;1325;3052950;-65
2022/11/15 09:13:54;;;;;;;16.00;5.90;;;;;;;5.72;58.40;100131.08;24656;1328;3053918;-66
2022/11/15 09:16:45;;;;;;;14.40;6.20;;;;;;;5.64;58.79;100132.88;24683;1327;3053597;-68
2022/11/15 09:19:34;;;;;;;9.30;5.00;;;;;;;5.81;58.79;100133.23;24708;1328;3053672;-67
2022/11/15 09:22:22;;;;;;;13.00;5.00;;;;;;;6.07;57.90;100126.22;24662;1328;3048887;-67
2022/11/15 09:25:10;;;;;;;10.30;4.20;;;;;;;6.04;56.86;100113.45;24640;1325;3068679;-68
2022/11/15 09:27:58;;;;;;;5.90;3.60;;;;;;;6.03;57.47;100109.30;24620;1323;3049175;-67
2022/11/15 09:30:46;;;;;;;10.40;5.00;;;;;;;6.18;57.27;100109.17;24691;1318;3057475;-72
2022/11/15 09:33:35;;;;;;;9.60;4.60;;;;;;;6.34;56.94;100097.34;24649;1318;3053218;-68
2022/11/15 09:36:25;;;;;;;10.60;3.60;;;;;;;6.26;56.33;100088.72;24647;1318;3053066;-69
2022/11/15 09:39:13;;;;;;;9.60;3.60;;;;;;;6.16;56.93;100081.75;24661;1325;3052644;-67
2022/11/15 09:42:23;;;;;;;7.20;3.20;;;;;;;6.32;56.36;100076.52;24651;1325;3052490;-72
2022/11/15 09:45:18;;;;;;;6.10;3.00;;;;;;;6.49;55.92;100075.11;24678;1325;3049336;-76
2022/11/15 09:48:15;;;;;;;5.10;2.90;;;;;;;6.36;56.05;100075.02;24661;1318;3070201;-71
2022/11/15 09:51:00;;;;;;;4.80;3.00;;;;;;;6.46;55.86;100065.97;24673;1317;3051038;-71
2022/11/15 09:53:30;;;;;;;6.90;3.50;;;;;;;6.63;55.93;100062.25;24647;1325;3056698;-68
2022/11/15 09:56:02;;;;;;;6.60;3.20;;;;;;;6.60;55.70;100055.91;24673;1325;3028091;-65
2022/11/15 09:58:46;;;;;;;6.50;2.90;;;;;;;6.57;55.81;100058.45;24609;1327;3026046;-71
2022/11/15 10:01:43;;;;;;;8.60;3.40;;;;;;;6.74;55.69;100058.89;24561;1323;3051477;-69
2022/11/15 10:04:12;;;;;;;6.30;2.60;;;;;;;6.63;55.64;100051.46;24541;1325;3053491;-65
2022/11/15 10:07:06;;;;;;;8.40;3.90;;;;;;;6.81;55.86;100041.94;24523;1327;3027315;-65
2022/11/15 10:10:13;;;;;;;6.00;3.00;;;;;;;6.86;55.87;100042.11;24561;1327;3069919;-63
2022/11/15 10:13:25;;;;;;;6.90;3.50;;;;;;;6.82;56.86;100045.55;24614;1334;3050555;-65
2022/11/15 10:16:00;;;;;;;7.90;3.60;;;;;;;7.05;56.77;100039.66;24661;1333;3058476;-65
2022/11/15 10:19:02;;;;;;;10.40;4.10;;;;;;;7.02;56.72;100044.30;24654;1326;3052540;-67
2022/11/15 10:21:48;;;;;;;11.30;4.00;;;;;;;6.93;56.85;100049.67;24630;1320;3053327;-71
2022/11/15 10:24:19;;;;;;;8.60;4.10;;;;;;;6.93;56.61;100044.83;24676;1321;3050180;-70
2022/11/15 10:26:48;;;;;;;10.90;4.10;;;;;;;7.07;56.26;100032.83;24652;1325;3029987;-64
2022/11/15 10:29:22;;;;;;;7.60;4.10;;;;;;;7.06;56.26;100028.51;24730;1326;3028527;-67
2022/11/15 10:31:51;;;;;;;8.90;3.70;;;;;;;7.30;55.76;100023.95;24653;1327;3028449;-66
2022/11/15 10:34:21;;;;;;;9.70;4.00;;;;;;;7.31;55.29;100027.23;24690;1327;3026280;-63
2022/11/15 10:36:58;;;;;;;7.40;2.90;;;;;;;7.38;55.18;100016.48;24661;1327;3049697;-71
2022/11/15 10:39:27;;;;;;;8.10;3.30;;;;;;;7.42;54.33;100019.48;24777;1313;3068459;-68
2022/11/15 10:41:57;;;;;;;12.10;3.80;;;;;;;7.22;54.66;100009.96;24674;1333;3026161;-68
2022/11/15 10:44:29;;;;;;;11.10;3.60;;;;;;;7.24;54.81;100008.85;24696;1316;3027520;-67
2022/11/15 10:47:22;;;;;;;8.40;3.20;;;;;;;7.23;54.77;100002.59;24600;1313;3069950;-69
2022/11/15 10:50:03;;;;;;;5.10;2.80;;;;;;;7.13;55.19;99994.97;24644;1326;3050368;-69
2022/11/15 10:52:34;;;;;;;4.80;2.80;;;;;;;7.02;55.54;99991.89;24682;1327;3057970;-69
2022/11/15 10:55:12;;;;;;;5.30;2.70;;;;;;;7.06;55.56;99987.58;24591;1328;3025898;-70
2022/11/15 10:57:52;;;;;;;5.90;2.50;;;;;;;7.20;55.56;99984.96;24610;1321;3053375;-68
2022/11/15 11:00:26;;;;;;;5.70;3.40;;;;;;;7.09;55.38;99987.47;24643;1320;3053358;-64
2022/11/15 11:02:55;;;;;;;;;;;;;;;7.18;55.29;99981.88;24608;1328;3052880;-65
2022/11/15 11:05:29;;;;;;;4.90;2.30;;;;;;;7.11;55.46;99977.80;24670;1310;3025710;-68
2022/11/15 11:08:20;;;;;;;4.90;2.60;;;;;;;7.03;55.33;99967.84;24594;1326;3068121;-65
2022/11/15 11:10:57;;;;;;;5.20;2.50;;;;;;;6.75;56.18;99969.23;24587;1333;3049839;-65
2022/11/15 11:13:28;;;;;;;7.30;3.00;;;;;;;6.71;56.52;99968.31;24749;1318;3056821;-62
2022/11/15 11:16:33;;;;;;;5.40;2.50;;;;;;;6.73;56.52;99964.57;24601;1325;3026398;-68
2022/11/15 11:19:02;;;;;;;;;;;;;;;6.75;56.42;99957.38;24692;1317;3052565;-70
2022/11/15 11:21:44;;;;;;;4.50;1.70;;;;;;;6.60;57.00;99958.95;24635;1323;3027411;-66
2022/11/15 11:24:25;;;;;;;8.90;2.40;;;;;;;6.76;56.63;99954.20;24658;1304;3052881;-70
2022/11/15 11:26:59;;;;;;;5.40;2.60;;;;;;;6.79;56.66;99946.96;24656;1328;3049149;-68
2022/11/15 11:29:37;;;;;;;4.50;2.40;;;;;;;6.99;56.16;99947.09;24696;1325;3070489;-68
2022/11/15 11:32:22;;;;;;;8.00;3.00;;;;;;;7.19;55.95;99948.42;24716;1325;3051337;-67
2022/11/15 11:35:11;;;;;;;6.50;2.70;;;;;;;7.28;55.29;99942.83;24643;1326;3057062;-69
2022/11/15 11:37:54;;;;;;;9.80;2.80;;;;;;;7.20;55.20;99939.33;24708;1326;3051576;-65
2022/11/15 11:41:01;;;;;;;4.40;2.70;;;;;;;7.27;55.21;99939.20;24675;1334;3053712;-68
2022/11/15 11:43:37;;;;;;;4.80;2.40;;;;;;;7.33;55.08;99938.45;24700;1318;3052113;-68
2022/11/15 11:46:29;;;;;;;6.10;3.10;;;;;;;7.29;54.99;99939.83;24689;1328;3052515;-67
2022/11/15 11:49:30;;;;;;;7.80;3.30;;;;;;;7.29;54.93;99933.53;24710;1325;3049079;-72
2022/11/15 11:52:04;;;;;;;6.50;2.80;;;;;;;7.35;54.89;99927.57;24561;1318;3067975;-72
2022/11/15 11:54:37;;;;;;;6.80;3.20;;;;;;;7.39;54.47;99924.98;24676;1320;3050610;-72
2022/11/15 11:57:31;;;;;;;8.40;3.50;;;;;;;7.31;55.13;99922.83;24703;1320;3027262;-67
2022/11/15 12:00:04;;;;;;;6.30;3.20;;;;;;;7.46;54.73;99906.88;24733;1320;3053185;-74
2022/11/15 12:02:43;;;;;;;5.30;3.20;;;;;;;7.48;54.68;99908.58;24664;1325;3053710;-73
2022/11/15 12:05:43;;;;;;;5.50;3.10;;;;;;;7.50;54.72;99911.44;24735;1325;3026291;-73
2022/11/15 12:08:26;;;;;;;6.50;3.20;;;;;;;7.57;54.66;99910.27;24650;1329;3051930;-73
2022/11/15 12:11:03;;;;;;;6.00;2.80;;;;;;;7.50;54.69;99905.70;24629;1328;3049138;-71
2022/11/15 12:13:36;;;;;;;10.00;3.80;;;;;;;7.63;54.58;99906.02;24640;1321;3068848;-72
2022/11/15 12:16:21;;;;;;;5.20;3.30;;;;;;;7.59;54.86;99897.63;24612;1330;3050740;-73
2022/11/15 12:18:52;;;;;;;11.20;4.40;;;;;;;7.59;54.77;99895.74;24689;1320;3056218;-70
2022/11/15 12:21:27;;;;;;;7.50;3.30;;;;;;;7.75;54.64;99888.63;24622;1321;3026085;-70
2022/11/15 12:24:00;;;;;;;6.20;3.00;;;;;;;8.00;53.97;99883.92;24667;1331;3053926;-68
2022/11/15 12:26:42;;;;;;;12.00;4.40;;;;;;;7.83;54.56;99890.53;24649;1327;3027402;-72
2022/11/15 12:29:17;;;;;;;7.00;3.80;;;;;;;7.78;54.86;99881.87;24702;1313;3052457;-73
2022/11/15 12:31:50;;;;;;;8.00;4.00;;;;;;;8.03;54.28;99873.29;24576;1330;3050558;-74
2022/11/15 12:34:21;;;;;;;6.30;3.90;;;;;;;8.07;54.03;99873.30;24627;1328;3067369;-73
2022/11/15 12:36:50;;;;;;;7.50;3.80;;;;;;;8.13;53.77;99870.27;24645;1321;3028059;-73
2022/11/15 12:39:20;;;;;;;7.50;3.50;;;;;;;8.22;53.53;99860.96;24620;1314;3027646;-72
2022/11/15 12:41:55;;;;;;;6.40;3.80;;;;;;;8.41;53.28;99856.62;24607;1329;3068727;-72
2022/11/15 12:44:31;;;;;;;6.70;3.60;;;;;;;8.35;53.26;99851.13;24630;1337;3048865;-73
2022/11/15 12:47:02;;;;;;;5.80;3.20;;;;;;;8.45;53.01;99842.31;24627;1328;3056403;-74
2022/11/15 12:49:42;;;;;;;8.30;3.80;;;;;;;8.50;52.85;99837.38;24686;1330;3026448;-73
2022/11/15 12:52:11;;;;;;;7.50;3.00;;;;;;;8.41;53.17;99831.48;24640;1337;3052921;-72
2022/11/15 12:54:41;;;;;;;6.30;3.90;;;;;;;8.21;53.60;99821.92;24576;1330;3027741;-75